Terminal Aerodrome Forecast
Issued by NWS Charleston, WV

Current Version | Previous Version | Graphics & Text | Print | Product List | Glossary On
Versions: 1 2 3 4 5 6 7 8 9 10 11 12 13 14 15 16 17 18 19 20
000
FTUS41 KRLX 012300
TAFBKW
TAF
KBKW 012329Z 0200/0224 34005KT P6SM SCT025
     FM020800 VRB05KT 5SM BR SKC
     FM021000 00000KT 1SM BR SCT001
     FM021300 32005KT P6SM FEW250=

USA.gov is the U.S. government's official web portal to all federal, state and local government web resources and services.